Time;durP1;ratioP1;P1;durP2;ratioP2;P2;SDS_P1;SDS_P2;PMS_P1;PMS_P2;Temp;Humidity;BMP_temperature;BMP_pressure;BME280_temperature;BME280_humidity;BME280_pressure;Samples;Min_cycle;Max_cycle;Signal;HPM_P1;HPM_P2
2021/08/14 00:00:10;;;;;;;819.53;669.47;;;;;;;17.91;73.50;100582.88;5069044;28;20636;-67
2021/08/14 00:02:38;;;;;;;782.07;593.20;;;;;;;17.83;74.53;100582.81;5069231;28;20569;-68
2021/08/14 00:05:07;;;;;;;789.40;605.00;;;;;;;17.92;73.74;100617.19;5069358;28;20209;-67
2021/08/14 00:07:37;;;;;;;779.57;583.17;;;;;;;17.91;73.34;100610.91;5069334;28;20189;-69
2021/08/14 00:10:09;;;;;;;788.97;605.27;;;;;;;17.69;73.90;100574.16;5069243;28;20698;-69
2021/08/14 00:12:37;;;;;;;797.77;635.30;;;;;;;17.80;75.47;100607.56;5069154;28;20255;-69
2021/08/14 00:15:08;;;;;;;791.60;613.53;;;;;;;17.67;75.39;100592.47;5069117;28;20208;-67
2021/08/14 00:17:36;;;;;;;791.67;614.20;;;;;;;17.67;75.29;100603.34;5069100;28;20224;-69
2021/08/14 00:20:06;;;;;;;788.63;592.70;;;;;;;17.64;75.46;100600.03;5069282;28;20209;-69
2021/08/14 00:22:34;;;;;;;776.80;579.83;;;;;;;17.63;74.15;100606.47;5068876;28;20234;-69
2021/08/14 00:25:05;;;;;;;774.97;573.00;;;;;;;17.58;74.10;100593.38;5069287;28;20288;-69
2021/08/14 00:27:33;;;;;;;772.63;568.00;;;;;;;17.40;74.18;100576.19;5054710;28;20182;-69
2021/08/14 00:30:01;;;;;;;774.63;569.53;;;;;;;17.61;74.43;100614.78;5068938;28;20201;-69
2021/08/14 00:32:29;;;;;;;768.70;561.87;;;;;;;17.48;74.86;100619.75;5068424;28;20599;-68
2021/08/14 00:34:58;;;;;;;775.93;573.93;;;;;;;17.48;75.55;100611.59;5069836;28;20654;-68
2021/08/14 00:37:26;;;;;;;769.43;564.27;;;;;;;17.55;74.55;100618.13;5069799;28;20225;-68
2021/08/14 00:39:54;;;;;;;762.73;550.57;;;;;;;17.51;75.69;100614.00;5070254;28;20202;-68
2021/08/14 00:42:23;;;;;;;764.63;552.33;;;;;;;17.51;76.20;100605.84;5100931;28;20197;-68
2021/08/14 00:44:51;;;;;;;803.07;632.40;;;;;;;17.44;76.74;100599.28;5068572;28;20243;-69
2021/08/14 00:47:25;;;;;;;791.03;614.70;;;;;;;17.47;76.92;100612.59;5068904;28;20613;-68
2021/08/14 00:49:53;;;;;;;776.63;580.17;;;;;;;17.48;77.11;100617.03;5069980;28;20288;-68
2021/08/14 00:52:22;;;;;;;760.43;535.27;;;;;;;17.56;75.94;100617.13;5068604;28;20522;-68
2021/08/14 00:54:50;;;;;;;759.63;548.77;;;;;;;17.58;75.16;100614.25;5055007;28;20202;-69
2021/08/14 00:57:19;;;;;;;767.97;565.73;;;;;;;17.55;76.68;100609.97;5068310;28;20217;-69
2021/08/14 00:59:50;;;;;;;759.77;547.67;;;;;;;17.51;76.12;100597.72;5056589;28;20216;-69
2021/08/14 01:02:19;;;;;;;718.80;458.97;;;;;;;17.51;76.75;100608.56;5068739;28;20581;-69
2021/08/14 01:04:48;;;;;;;790.30;622.40;;;;;;;17.53;75.68;100595.69;5071318;28;20621;-68
2021/08/14 01:07:16;;;;;;;794.97;636.20;;;;;;;17.59;75.69;100605.94;5057324;28;20201;-68
2021/08/14 01:09:45;;;;;;;805.43;640.50;;;;;;;17.54;76.23;100600.13;5071895;28;20211;-68
2021/08/14 01:12:15;;;;;;;803.60;648.10;;;;;;;17.56;75.52;100595.38;5071441;28;20205;-68
2021/08/14 01:14:45;;;;;;;795.03;627.83;;;;;;;17.52;75.32;100585.84;5071292;28;20194;-68
2021/08/14 01:17:15;;;;;;;806.83;645.70;;;;;;;17.63;75.47;100590.19;5070566;28;20754;-68
2021/08/14 01:19:43;;;;;;;803.00;637.60;;;;;;;17.62;75.15;100594.75;5071686;28;20201;-68
2021/08/14 01:22:13;;;;;;;799.60;632.43;;;;;;;17.67;74.40;100592.47;5071819;28;20600;-69
2021/08/14 01:24:43;;;;;;;806.97;649.23;;;;;;;17.09;73.62;100494.22;5072124;28;20212;-68
2021/08/14 01:27:13;;;;;;;796.83;624.20;;;;;;;17.47;74.34;100569.16;5071458;28;20613;-68
2021/08/14 01:29:41;;;;;;;811.63;665.47;;;;;;;17.71;74.68;100603.03;5071912;28;20205;-68
2021/08/14 01:32:10;;;;;;;812.13;660.83;;;;;;;17.70;73.58;100599.47;5104293;28;20700;-68
2021/08/14 01:34:38;;;;;;;796.03;621.13;;;;;;;17.77;74.12;100586.13;5071574;28;20288;-68
2021/08/14 01:37:07;;;;;;;819.07;670.93;;;;;;;17.74;73.83;100592.69;5071229;28;20835;-68
2021/08/14 01:39:35;;;;;;;815.43;667.80;;;;;;;17.46;74.90;100551.16;5071360;28;20469;-69
2021/08/14 01:42:06;;;;;;;820.37;673.47;;;;;;;17.58;76.05;100587.94;5071813;28;20443;-68
2021/08/14 01:44:37;;;;;;;810.17;657.23;;;;;;;17.57;75.56;100583.50;5071151;28;20946;-69
2021/08/14 01:47:07;;;;;;;796.63;627.47;;;;;;;17.56;75.14;100589.09;5070993;28;20431;-69
2021/08/14 01:49:35;;;;;;;803.53;640.50;;;;;;;17.53;75.69;100583.97;5071150;28;20189;-68
2021/08/14 01:52:10;;;;;;;801.37;634.03;;;;;;;17.47;74.62;100580.00;5071544;28;20934;-69
2021/08/14 01:54:38;;;;;;;802.00;637.47;;;;;;;17.39;75.04;100585.31;5058008;28;20435;-68
2021/08/14 01:57:07;;;;;;;805.63;645.27;;;;;;;17.32;76.27;100582.38;5071017;28;20851;-69
2021/08/14 01:59:37;;;;;;;802.63;644.17;;;;;;;17.10;75.75;100577.34;5070656;28;20435;-69
2021/08/14 02:02:05;;;;;;;809.17;652.33;;;;;;;17.25;75.50;100583.13;5071204;28;20802;-68
2021/08/14 02:04:34;;;;;;;784.80;599.40;;;;;;;17.15;75.56;100582.34;5070711;28;20432;-69
2021/08/14 02:07:02;;;;;;;812.60;654.67;;;;;;;17.17;75.38;100583.03;5071081;28;20547;-68
2021/08/14 02:09:30;;;;;;;819.53;671.70;;;;;;;17.12;73.87;100567.19;5069965;28;21146;-69
2021/08/14 02:11:58;;;;;;;820.17;667.70;;;;;;;17.08;76.46;100584.78;5070591;28;20523;-68
2021/08/14 02:14:26;;;;;;;826.63;677.50;;;;;;;17.06;75.62;100579.50;5070590;28;20440;-68
2021/08/14 02:16:56;;;;;;;819.80;674.00;;;;;;;16.98;75.94;100576.69;5070594;28;20559;-68
2021/08/14 02:19:24;;;;;;;825.73;678.73;;;;;;;17.06;77.47;100581.34;5070491;28;20481;-68
2021/08/14 02:21:52;;;;;;;812.80;659.80;;;;;;;17.10;75.32;100588.19;5070531;28;20472;-69
2021/08/14 02:24:20;;;;;;;821.37;672.83;;;;;;;17.16;75.32;100581.34;5070310;28;20447;-68
2021/08/14 02:26:48;;;;;;;810.20;653.30;;;;;;;17.20;75.04;100580.03;5070056;28;20440;-68
2021/08/14 02:29:16;;;;;;;813.27;656.87;;;;;;;17.20;74.63;100585.44;5070311;28;20432;-69
2021/08/14 02:31:44;;;;;;;811.60;653.83;;;;;;;17.21;75.10;100584.44;5070488;28;20445;-68
2021/08/14 02:34:14;;;;;;;803.80;643.97;;;;;;;17.11;74.72;100579.03;5070202;28;20859;-69
2021/08/14 02:36:42;;;;;;;808.00;650.53;;;;;;;17.04;75.83;100578.78;5070145;28;20437;-69
2021/08/14 02:39:10;;;;;;;804.37;635.93;;;;;;;17.03;75.96;100581.66;5070087;28;20791;-69
2021/08/14 02:41:38;;;;;;;799.57;630.80;;;;;;;17.07;77.33;100586.63;5070185;28;20522;-68
2021/08/14 02:44:07;;;;;;;801.30;628.73;;;;;;;17.01;76.85;100584.53;5070404;28;20437;-68
2021/08/14 02:46:35;;;;;;;798.17;625.37;;;;;;;16.98;75.61;100581.25;5069997;28;20527;-69
2021/08/14 02:49:03;;;;;;;810.13;651.10;;;;;;;17.04;75.51;100577.94;5069957;28;20489;-69
2021/08/14 02:51:33;;;;;;;813.73;656.27;;;;;;;17.00;76.36;100579.25;5069782;28;20973;-69
2021/08/14 02:54:01;;;;;;;810.70;652.20;;;;;;;16.91;76.84;100578.28;5069929;28;20448;-69
2021/08/14 02:56:29;;;;;;;805.50;633.70;;;;;;;16.98;75.99;100578.53;5069666;28;20794;-69
2021/08/14 02:58:57;;;;;;;819.07;674.10;;;;;;;16.89;76.17;100569.44;5069746;28;20812;-69
2021/08/14 03:01:25;;;;;;;813.10;654.47;;;;;;;16.90;77.01;100576.59;5069647;28;20424;-68
2021/08/14 03:03:53;;;;;;;815.27;665.43;;;;;;;16.93;76.10;100573.56;5070127;28;20447;-68
2021/08/14 03:06:26;;;;;;;812.63;667.63;;;;;;;16.86;77.30;100586.03;5069627;28;20439;-68
2021/08/14 03:08:55;;;;;;;811.30;660.10;;;;;;;16.87;76.86;100570.59;5069702;28;20636;-68
2021/08/14 03:11:24;;;;;;;807.40;652.03;;;;;;;16.79;77.36;100584.88;5069599;28;20922;-68
2021/08/14 03:13:52;;;;;;;813.10;651.07;;;;;;;16.63;77.78;100569.22;5069762;28;20918;-68
2021/08/14 03:16:20;;;;;;;816.00;667.43;;;;;;;16.62;77.71;100570.22;5068274;28;20447;-68
2021/08/14 03:18:48;;;;;;;802.47;638.97;;;;;;;16.71;76.91;100576.63;5069455;28;20463;-69
2021/08/14 03:21:16;;;;;;;792.37;630.03;;;;;;;16.63;78.06;100577.34;5068688;28;20978;-68
2021/08/14 03:23:45;;;;;;;800.63;637.97;;;;;;;16.69;76.09;100584.06;5069469;28;20926;-68
2021/08/14 03:26:14;;;;;;;804.57;641.47;;;;;;;16.65;76.46;100594.31;5069760;28;20945;-69
2021/08/14 03:28:44;;;;;;;809.93;657.83;;;;;;;16.61;77.43;100586.63;5069227;28;20735;-69
2021/08/14 03:31:12;;;;;;;817.97;666.27;;;;;;;16.60;75.60;100591.22;5069063;28;20443;-69
2021/08/14 03:33:40;;;;;;;828.47;643.53;;;;;;;16.53;76.08;100586.50;5055621;28;20489;-69
2021/08/14 03:36:08;;;;;;;810.07;661.43;;;;;;;16.59;76.58;100591.34;5069574;28;20436;-68
2021/08/14 03:38:37;;;;;;;812.53;662.93;;;;;;;16.49;76.63;100582.38;5069112;28;20958;-68
2021/08/14 03:41:07;;;;;;;799.33;632.53;;;;;;;16.50;77.16;100578.66;5069504;28;20490;-71
2021/08/14 03:43:36;;;;;;;797.63;621.13;;;;;;;16.56;76.14;100583.50;5068950;28;20435;-68
2021/08/14 03:46:05;;;;;;;786.07;597.93;;;;;;;16.55;76.10;100577.25;5069355;28;20431;-68
2021/08/14 03:48:34;;;;;;;808.30;652.07;;;;;;;16.00;77.21;100503.03;5069175;28;20850;-68
2021/08/14 03:51:02;;;;;;;798.60;624.83;;;;;;;16.57;75.89;100590.66;5069446;28;20431;-68
2021/08/14 03:53:31;;;;;;;766.47;550.07;;;;;;;16.46;76.61;100575.38;5069240;28;20444;-69
2021/08/14 03:55:59;;;;;;;742.13;507.57;;;;;;;16.52;76.69;100582.06;5069189;28;21154;-69
2021/08/14 03:58:32;;;;;;;715.30;449.63;;;;;;;16.56;76.53;100583.50;5068651;28;20471;-69
2021/08/14 04:01:01;;;;;;;748.27;501.47;;;;;;;16.30;77.40;100542.63;5068975;28;20450;-69
2021/08/14 04:03:30;;;;;;;744.37;494.83;;;;;;;16.60;76.37;100584.94;5069098;28;20797;-69
2021/08/14 04:05:59;;;;;;;724.67;465.50;;;;;;;16.65;75.79;100585.34;5068979;28;20454;-69
2021/08/14 04:08:27;;;;;;;772.07;567.20;;;;;;;16.71;75.79;100577.50;5069378;28;20781;-69
2021/08/14 04:10:55;;;;;;;771.00;563.33;;;;;;;16.80;74.81;100581.16;5069041;28;20443;-69
2021/08/14 04:13:24;;;;;;;732.77;478.77;;;;;;;16.83;75.57;100580.00;5068998;28;20523;-68
2021/08/14 04:15:52;;;;;;;718.80;455.03;;;;;;;16.80;75.50;100569.47;5069380;28;20436;-68
2021/08/14 04:18:21;;;;;;;732.63;477.37;;;;;;;16.80;76.44;100572.19;5068958;28;20973;-69
2021/08/14 04:20:50;;;;;;;728.57;476.57;;;;;;;16.92;76.45;100577.28;5068962;28;20436;-68
2021/08/14 04:23:18;;;;;;;749.87;517.90;;;;;;;16.97;75.19;100569.56;5068989;28;20454;-69
2021/08/14 04:25:49;;;;;;;719.47;459.73;;;;;;;17.04;74.68;100573.38;5068985;28;20647;-68
2021/08/14 04:28:17;;;;;;;739.03;482.23;;;;;;;17.07;75.57;100570.34;5068520;28;20428;-69
2021/08/14 04:30:45;;;;;;;745.77;510.57;;;;;;;17.01;75.71;100565.53;5068808;28;20980;-69
2021/08/14 04:33:13;;;;;;;747.73;503.00;;;;;;;17.02;74.55;100564.53;5102441;28;20440;-69
2021/08/14 04:35:42;;;;;;;727.97;476.80;;;;;;;17.10;74.22;100579.19;5072906;28;20193;-68
2021/08/14 04:38:11;;;;;;;738.00;482.73;;;;;;;17.23;73.54;100574.28;5072594;28;20213;-69
2021/08/14 04:40:39;;;;;;;713.60;439.27;;;;;;;17.22;73.55;100569.88;5072710;28;20482;-69
2021/08/14 04:43:07;;;;;;;712.23;448.43;;;;;;;17.32;73.41;100570.66;5072732;28;20193;-69
2021/08/14 04:45:35;;;;;;;724.50;451.70;;;;;;;17.46;72.40;100575.59;5058444;28;20196;-68
2021/08/14 04:48:03;;;;;;;705.73;428.20;;;;;;;17.50;72.96;100577.00;5072488;28;20189;-69
2021/08/14 04:50:31;;;;;;;745.40;497.77;;;;;;;17.55;73.47;100574.66;5071556;28;20205;-69
2021/08/14 04:53:00;;;;;;;713.70;446.83;;;;;;;17.62;73.03;100575.75;5072461;28;20208;-69
2021/08/14 04:55:28;;;;;;;723.13;449.07;;;;;;;17.78;71.41;100571.53;5072211;28;20208;-69
2021/08/14 04:57:56;;;;;;;723.77;457.43;;;;;;;17.69;72.35;100576.88;5058205;28;20201;-69
2021/08/14 05:00:24;;;;;;;758.67;539.83;;;;;;;17.81;71.04;100576.66;5072198;28;20205;-68
2021/08/14 05:02:53;;;;;;;734.23;483.73;;;;;;;17.61;71.66;100571.34;5071754;28;20201;-69
2021/08/14 05:05:21;;;;;;;718.53;454.57;;;;;;;17.69;71.69;100579.59;5104662;28;20202;-69
2021/08/14 05:07:49;;;;;;;751.07;526.03;;;;;;;17.76;71.60;100579.00;5071888;28;20208;-69
2021/08/14 05:10:19;;;;;;;769.77;565.93;;;;;;;17.87;70.57;100574.19;5104570;28;20206;-69
2021/08/14 05:12:47;;;;;;;750.50;519.63;;;;;;;17.80;72.10;100567.66;5071874;28;20205;-69
2021/08/14 05:15:16;;;;;;;731.60;472.23;;;;;;;17.82;71.51;100568.38;5071820;28;20800;-69
2021/08/14 05:17:46;;;;;;;776.53;569.30;;;;;;;17.95;71.23;100573.41;5071630;28;20205;-69
2021/08/14 05:20:15;;;;;;;777.17;568.00;;;;;;;17.85;72.27;100568.03;5071558;28;20471;-68
2021/08/14 05:22:43;;;;;;;786.93;585.00;;;;;;;17.77;71.96;100564.41;5071784;28;20287;-68
2021/08/14 05:25:12;;;;;;;725.60;469.17;;;;;;;17.94;71.06;100560.81;5058152;28;20726;-68
2021/08/14 05:27:42;;;;;;;737.17;492.60;;;;;;;18.05;70.13;100563.28;5071832;28;20209;-68
2021/08/14 05:30:11;;;;;;;741.80;497.13;;;;;;;18.14;70.35;100575.97;5071458;28;20991;-69
2021/08/14 05:32:39;;;;;;;747.60;491.17;;;;;;;18.24;69.40;100574.00;5104115;28;20201;-69
2021/08/14 05:35:08;;;;;;;729.40;481.93;;;;;;;18.29;69.33;100571.66;5071517;28;20197;-69
2021/08/14 05:37:36;;;;;;;725.87;462.53;;;;;;;18.26;68.88;100576.56;5071215;28;20205;-69
2021/08/14 05:40:05;;;;;;;731.37;483.37;;;;;;;17.94;69.01;100517.34;5071106;28;20226;-69
2021/08/14 05:42:33;;;;;;;757.27;527.67;;;;;;;18.17;69.49;100567.47;5071020;28;20200;-69
2021/08/14 05:45:03;;;;;;;743.57;511.47;;;;;;;18.18;69.33;100552.88;5070487;28;20201;-69
2021/08/14 05:47:32;;;;;;;769.77;560.00;;;;;;;18.23;69.53;100564.13;5071626;28;20208;-69
2021/08/14 05:50:00;;;;;;;774.57;566.90;;;;;;;18.30;68.89;100562.47;5071256;28;20197;-68
2021/08/14 05:52:28;;;;;;;746.63;508.40;;;;;;;18.29;69.14;100560.78;5070853;28;20205;-69
2021/08/14 05:54:56;;;;;;;715.67;457.67;;;;;;;18.32;69.51;100567.75;5103641;28;20676;-69
2021/08/14 05:57:24;;;;;;;708.67;436.07;;;;;;;18.26;68.85;100560.25;5070912;28;20210;-69
2021/08/14 05:59:52;;;;;;;710.40;433.63;;;;;;;18.39;68.78;100554.41;5070899;28;20717;-69
2021/08/14 06:02:21;;;;;;;709.10;447.47;;;;;;;18.48;67.94;100553.44;5070851;28;20220;-69
2021/08/14 06:04:50;;;;;;;796.10;624.93;;;;;;;18.71;67.37;100543.75;5070938;28;20724;-69
2021/08/14 06:07:18;;;;;;;801.80;626.20;;;;;;;18.96;66.47;100535.69;5070899;28;20263;-67
2021/08/14 06:09:46;;;;;;;797.83;630.03;;;;;;;19.08;66.68;100556.19;5070526;28;20635;-68
2021/08/14 06:12:14;;;;;;;797.70;621.73;;;;;;;19.31;65.52;100546.41;5070771;28;20699;-69
2021/08/14 06:14:42;;;;;;;810.40;637.40;;;;;;;19.20;65.04;100516.75;5103130;28;20563;-69
2021/08/14 06:17:10;;;;;;;806.67;641.03;;;;;;;19.39;65.57;100549.16;5069747;28;20381;-69
2021/08/14 06:19:40;;;;;;;812.33;650.93;;;;;;;19.31;65.42;100530.06;5070271;28;20224;-68
2021/08/14 06:22:09;;;;;;;792.93;612.20;;;;;;;19.54;64.38;100524.88;5069020;28;20236;-69
2021/08/14 06:24:37;;;;;;;812.93;639.70;;;;;;;19.63;63.58;100555.72;5070390;28;20204;-68
2021/08/14 06:27:06;;;;;;;793.00;613.93;;;;;;;19.71;64.11;100553.00;5070535;28;20236;-69
2021/08/14 06:29:34;;;;;;;785.10;581.33;;;;;;;19.71;64.47;100555.72;5070210;28;20686;-69
2021/08/14 06:32:02;;;;;;;778.80;580.50;;;;;;;19.62;64.14;100563.06;5070630;28;20201;-69
2021/08/14 06:34:30;;;;;;;763.00;549.07;;;;;;;19.67;64.20;100557.94;5069979;28;20209;-68
2021/08/14 06:37:00;;;;;;;771.10;563.47;;;;;;;19.68;63.26;100553.34;5070649;28;20212;-69
2021/08/14 06:39:28;;;;;;;777.43;580.47;;;;;;;19.70;63.22;100554.03;5062980;28;20222;-69
2021/08/14 06:41:56;;;;;;;780.23;586.23;;;;;;;19.86;63.67;100548.59;5063753;28;20707;-68
2021/08/14 06:44:24;;;;;;;782.47;579.00;;;;;;;20.03;62.66;100533.97;5070005;28;20568;-69
2021/08/14 06:46:54;;;;;;;793.17;607.60;;;;;;;20.26;60.96;100541.47;5070295;28;20205;-69
2021/08/14 06:49:22;;;;;;;790.63;596.60;;;;;;;20.53;60.76;100543.00;5069666;28;20251;-69
2021/08/14 06:51:50;;;;;;;737.93;490.07;;;;;;;20.73;60.25;100549.75;5076989;28;20316;-69
2021/08/14 06:54:20;;;;;;;747.00;504.00;;;;;;;21.08;58.13;100545.72;5069943;28;20573;-69
2021/08/14 06:56:48;;;;;;;730.83;484.57;;;;;;;21.23;58.30;100546.72;5069942;28;20208;-69
2021/08/14 06:59:16;;;;;;;744.27;510.53;;;;;;;21.25;57.43;100546.53;5069873;28;20228;-69
2021/08/14 07:01:44;;;;;;;781.90;579.07;;;;;;;21.18;57.90;100557.28;5069535;28;20198;-69
2021/08/14 07:04:13;;;;;;;776.13;565.00;;;;;;;21.10;58.34;100540.91;5069750;28;20197;-69
2021/08/14 07:06:41;;;;;;;798.73;612.10;;;;;;;21.22;58.18;100549.59;5069472;28;20201;-68
2021/08/14 07:09:09;;;;;;;754.20;521.50;;;;;;;21.00;58.03;100556.69;5069726;28;20204;-69
2021/08/14 07:11:38;;;;;;;809.73;615.20;;;;;;;20.94;58.16;100549.19;5070044;28;20595;-69
2021/08/14 07:14:07;;;;;;;803.23;630.83;;;;;;;21.01;58.25;100552.91;5069709;28;20197;-69
2021/08/14 07:16:35;;;;;;;743.13;509.37;;;;;;;21.12;58.13;100557.97;5069572;28;20205;-69
2021/08/14 07:19:03;;;;;;;790.87;588.60;;;;;;;20.76;58.25;100479.28;5069720;28;20202;-69
2021/08/14 07:21:31;;;;;;;733.57;468.20;;;;;;;21.23;57.88;100556.75;5069136;28;20623;-69
2021/08/14 07:23:59;;;;;;;741.23;503.00;;;;;;;21.21;57.87;100551.47;5069741;28;20201;-69
2021/08/14 07:26:28;;;;;;;758.00;530.73;;;;;;;21.44;56.98;100558.91;5069153;28;20690;-69
2021/08/14 07:28:58;;;;;;;731.33;479.23;;;;;;;21.46;56.17;100545.94;5069548;28;20193;-69
2021/08/14 07:31:26;;;;;;;771.40;553.10;;;;;;;21.52;57.24;100556.97;5069094;28;20190;-69
2021/08/14 07:33:54;;;;;;;774.60;560.47;;;;;;;21.60;56.76;100543.25;5069493;28;20627;-69
2021/08/14 07:36:22;;;;;;;744.27;509.73;;;;;;;21.66;56.40;100541.69;5069137;28;20208;-69
2021/08/14 07:38:50;;;;;;;729.43;479.87;;;;;;;21.74;56.26;100555.31;5069325;28;20212;-69
2021/08/14 07:41:18;;;;;;;724.00;460.27;;;;;;;21.56;56.06;100543.81;5068979;28;20217;-69
2021/08/14 07:43:46;;;;;;;766.93;557.00;;;;;;;21.61;56.92;100539.50;5069291;28;20197;-67
2021/08/14 07:46:16;;;;;;;745.27;510.20;;;;;;;21.65;56.03;100518.97;5069509;28;20577;-69
2021/08/14 07:48:44;;;;;;;753.90;526.03;;;;;;;22.13;54.70;100541.53;5069274;28;20225;-69
2021/08/14 07:51:12;;;;;;;760.00;546.37;;;;;;;22.42;53.59;100548.13;5069441;28;20196;-69
2021/08/14 07:53:40;;;;;;;785.93;583.63;;;;;;;22.37;54.49;100545.09;5069067;28;20197;-67
2021/08/14 07:56:08;;;;;;;760.67;540.23;;;;;;;22.19;54.29;100537.22;5069164;28;20205;-69
2021/08/14 07:58:36;;;;;;;814.60;643.23;;;;;;;22.18;54.41;100528.16;5101652;28;20570;-69
2021/08/14 08:01:05;;;;;;;758.87;515.77;;;;;;;22.06;54.57;100529.66;5068896;28;20221;-69
2021/08/14 08:03:34;;;;;;;793.60;609.73;;;;;;;22.34;53.21;100524.41;5069096;28;20259;-69
2021/08/14 08:06:03;;;;;;;810.47;635.87;;;;;;;22.29;53.76;100522.22;5101512;28;20262;-69
2021/08/14 08:08:31;;;;;;;805.33;626.50;;;;;;;22.16;54.21;100523.91;5070829;28;20272;-69
2021/08/14 08:10:59;;;;;;;772.30;563.37;;;;;;;21.98;54.51;100503.16;5073080;28;20566;-69
2021/08/14 08:13:27;;;;;;;805.67;624.33;;;;;;;21.97;54.21;100492.41;5073186;28;20283;-69
2021/08/14 08:15:55;;;;;;;787.50;593.47;;;;;;;22.17;54.13;100522.88;5073175;28;20193;-69
2021/08/14 08:18:24;;;;;;;780.73;574.17;;;;;;;22.55;52.53;100516.34;5059436;28;20746;-69
2021/08/14 08:20:53;;;;;;;777.53;580.20;;;;;;;22.62;52.02;100520.00;5072626;28;20225;-69
2021/08/14 08:23:21;;;;;;;787.30;598.33;;;;;;;22.63;52.43;100529.06;5072873;28;20652;-68
2021/08/14 08:25:50;;;;;;;811.47;629.27;;;;;;;22.42;51.78;100518.88;5072989;28;20204;-69
2021/08/14 08:28:21;;;;;;;815.47;649.57;;;;;;;22.46;52.42;100533.03;5105425;28;20205;-69
2021/08/14 08:30:50;;;;;;;818.13;658.87;;;;;;;22.08;53.31;100522.09;5072838;28;20579;-69
2021/08/14 08:33:18;;;;;;;780.17;576.43;;;;;;;22.02;55.15;100515.44;5072564;28;20224;-67
2021/08/14 08:35:46;;;;;;;782.70;580.57;;;;;;;22.26;54.04;100514.41;5072868;28;20205;-69
2021/08/14 08:38:16;;;;;;;733.97;491.93;;;;;;;22.54;53.63;100508.31;5072683;28;20229;-68
2021/08/14 08:40:44;;;;;;;749.27;516.30;;;;;;;22.33;52.24;100497.22;5072522;28;20527;-69
2021/08/14 08:43:12;;;;;;;742.37;504.40;;;;;;;21.98;53.40;100502.31;5072524;28;20197;-69
2021/08/14 08:45:40;;;;;;;725.53;470.53;;;;;;;21.76;53.50;100509.50;5072417;28;20190;-69
2021/08/14 08:48:09;;;;;;;756.17;536.97;;;;;;;21.63;55.19;100503.78;5072881;28;20197;-69
2021/08/14 08:50:38;;;;;;;736.13;496.10;;;;;;;21.53;54.45;100457.56;5071864;28;20204;-69
2021/08/14 08:53:06;;;;;;;752.03;528.83;;;;;;;21.62;53.87;100507.53;5072335;28;20213;-68
2021/08/14 08:55:37;;;;;;;759.37;540.30;;;;;;;21.70;53.84;100513.81;5071989;28;20672;-69
2021/08/14 08:58:05;;;;;;;805.53;642.93;;;;;;;21.67;54.30;100497.75;5072646;28;20205;-68
2021/08/14 09:00:33;;;;;;;828.50;678.37;;;;;;;21.78;54.31;100501.13;5072248;28;20688;-71
2021/08/14 09:03:11;;;;;;;826.87;681.93;;;;;;;21.89;54.13;100492.47;5072017;28;20205;-69
2021/08/14 09:05:51;;;;;;;790.30;606.53;;;;;;;21.93;52.96;100499.28;5071931;28;20205;-69
2021/08/14 09:08:19;;;;;;;723.73;472.47;;;;;;;22.30;52.70;100487.50;5059437;28;20193;-69
2021/08/14 09:10:49;;;;;;;779.37;581.93;;;;;;;22.61;51.62;100490.94;5104635;28;20204;-69
2021/08/14 09:13:20;;;;;;;761.93;549.80;;;;;;;22.99;50.83;100482.66;5058245;28;20189;-69
2021/08/14 09:15:48;;;;;;;747.13;509.13;;;;;;;23.05;50.42;100448.16;5072067;28;20730;-69
2021/08/14 09:18:18;;;;;;;747.40;520.97;;;;;;;23.47;48.53;100480.25;5072029;28;20212;-69
2021/08/14 09:20:49;;;;;;;778.40;578.90;;;;;;;23.62;48.01;100478.38;5070802;28;20219;-69
2021/08/14 09:23:21;;;;;;;741.97;514.27;;;;;;;23.97;48.61;100473.00;5071925;28;20229;-69
2021/08/14 09:25:52;;;;;;;742.70;513.93;;;;;;;24.25;45.98;100471.13;5071678;28;20213;-69
2021/08/14 09:28:30;;;;;;;762.30;542.80;;;;;;;24.27;45.37;100471.75;5104198;28;20197;-69
2021/08/14 09:30:59;;;;;;;747.37;517.53;;;;;;;24.28;44.81;100468.00;5071847;28;20228;-69
2021/08/14 09:33:30;;;;;;;787.00;592.50;;;;;;;24.34;46.01;100472.69;5071468;28;20670;-69
2021/08/14 09:36:00;;;;;;;800.40;623.83;;;;;;;24.67;44.79;100478.38;5071467;28;20202;-69
2021/08/14 09:38:40;;;;;;;802.30;626.67;;;;;;;24.24;43.67;100384.31;5071336;28;20194;-70
2021/08/14 09:41:11;;;;;;;794.27;603.90;;;;;;;24.58;44.03;100481.50;5071672;28;20221;-69
2021/08/14 09:43:41;;;;;;;796.03;608.40;;;;;;;24.69;44.57;100476.28;5070916;28;20348;-70
2021/08/14 09:46:09;;;;;;;760.23;552.53;;;;;;;24.97;44.14;100476.22;5071420;28;20209;-69
2021/08/14 09:48:38;;;;;;;772.53;574.77;;;;;;;24.94;43.47;100471.13;5071195;28;20224;-69
2021/08/14 09:51:26;;;;;;;800.97;619.77;;;;;;;25.11;43.76;100466.19;5071583;28;20178;-69
2021/08/14 09:53:55;;;;;;;813.03;644.67;;;;;;;25.40;42.96;100473.22;5070967;28;20219;-69
2021/08/14 09:56:27;;;;;;;804.57;624.93;;;;;;;25.40;42.22;100470.47;5071042;28;20624;-69
2021/08/14 09:58:55;;;;;;;816.03;649.17;;;;;;;25.26;43.51;100461.38;5071040;28;20733;-69
2021/08/14 10:01:24;;;;;;;815.87;653.27;;;;;;;25.25;42.85;100462.41;5057283;28;20217;-69
2021/08/14 10:03:53;;;;;;;838.93;697.23;;;;;;;24.96;43.38;100465.44;5070982;28;20285;-69
2021/08/14 10:06:22;;;;;;;825.87;675.27;;;;;;;24.72;43.57;100464.03;5103179;28;20225;-69
2021/08/14 10:08:50;;;;;;;844.60;710.00;;;;;;;24.67;44.23;100461.06;5071122;28;20201;-69
2021/08/14 10:11:19;;;;;;;840.53;704.50;;;;;;;24.80;43.14;100458.41;5070787;28;20225;-69
2021/08/14 10:13:50;;;;;;;832.60;684.00;;;;;;;25.01;44.04;100465.69;5070914;28;20702;-69
2021/08/14 10:16:19;;;;;;;820.30;662.40;;;;;;;25.00;42.90;100464.00;5070797;28;20193;-69
2021/08/14 10:18:52;;;;;;;821.87;663.20;;;;;;;24.91;43.18;100455.06;5070911;28;20216;-69
2021/08/14 10:21:24;;;;;;;774.87;581.23;;;;;;;24.96;42.71;100451.69;5069169;28;20244;-69
2021/08/14 10:23:55;;;;;;;784.97;599.20;;;;;;;25.02;43.04;100451.75;5070564;28;20734;-69
2021/08/14 10:26:29;;;;;;;758.37;550.20;;;;;;;24.94;42.22;100453.81;5070405;28;20707;-69
2021/08/14 10:28:59;;;;;;;788.17;603.40;;;;;;;24.84;43.09;100462.44;5103170;28;20215;-69
2021/08/14 10:31:48;;;;;;;785.10;596.77;;;;;;;24.76;42.70;100459.84;5070186;28;20221;-69
2021/08/14 10:34:31;;;;;;;792.70;612.47;;;;;;;24.61;43.21;100459.13;5066216;28;20235;-69
2021/08/14 10:37:01;;;;;;;809.43;641.87;;;;;;;24.32;43.83;100460.22;5070406;28;20205;-69
2021/08/14 10:39:31;;;;;;;817.43;651.83;;;;;;;23.88;44.33;100454.94;5070182;28;20197;-70
2021/08/14 10:42:01;;;;;;;814.17;653.33;;;;;;;23.93;45.62;100458.81;5070705;28;20205;-69
2021/08/14 10:44:41;;;;;;;803.13;633.53;;;;;;;23.82;45.65;100453.84;5070334;28;20213;-69
2021/08/14 10:47:42;;;;;;;807.40;637.47;;;;;;;24.19;44.86;100443.63;5070258;28;20216;-69
2021/08/14 10:50:10;;;;;;;810.20;640.00;;;;;;;24.61;45.60;100426.19;5070195;28;20577;-69
2021/08/14 10:52:40;;;;;;;808.47;640.93;;;;;;;24.75;45.37;100442.50;5069921;28;20535;-69
2021/08/14 10:55:13;;;;;;;819.63;664.47;;;;;;;24.50;44.81;100443.22;5070046;28;20220;-69
2021/08/14 10:58:16;;;;;;;789.20;606.63;;;;;;;24.50;44.96;100441.34;5069847;28;20205;-69
2021/08/14 11:00:48;;;;;;;776.60;579.93;;;;;;;24.48;45.08;100450.78;5069975;28;20212;-69
2021/08/14 11:03:20;;;;;;;801.90;620.30;;;;;;;24.02;44.70;100441.16;5070073;28;20225;-69